createdAt,value
2023-05-09T00:01:30.262Z,11.59
2023-05-09T00:03:58.796Z,11.52
2023-05-09T00:06:27.783Z,11.48
2023-05-09T00:08:56.039Z,11.53
2023-05-09T00:11:23.104Z,11.46
2023-05-09T00:13:51.020Z,11.48
2023-05-09T00:16:18.919Z,11.34
2023-05-09T00:18:45.892Z,11.40
2023-05-09T00:21:13.290Z,11.28
2023-05-09T00:23:41.141Z,11.18
2023-05-09T00:26:08.333Z,10.94
2023-05-09T00:28:38.390Z,10.85
2023-05-09T00:31:05.754Z,10.76
2023-05-09T00:33:32.683Z,10.73
2023-05-09T00:35:59.500Z,10.72
2023-05-09T00:38:26.550Z,10.87
2023-05-09T00:40:53.565Z,10.87
2023-05-09T00:43:21.516Z,10.98
2023-05-09T00:45:48.595Z,11.01
2023-05-09T00:48:16.900Z,10.97
2023-05-09T00:50:44.416Z,10.93
2023-05-09T00:53:12.155Z,11.06
2023-05-09T00:55:41.158Z,10.85
2023-05-09T00:58:08.326Z,10.93
2023-05-09T01:00:35.566Z,11.02
2023-05-09T01:03:05.163Z,11.02
2023-05-09T01:05:53.253Z,11.02
2023-05-09T01:08:27.282Z,11.10
2023-05-09T01:11:18.572Z,11.04
2023-05-09T01:13:57.810Z,11.00
2023-05-09T01:16:49.949Z,11.02
2023-05-09T01:19:35.708Z,10.94
2023-05-09T01:22:05.325Z,10.93
2023-05-09T01:24:51.494Z,11.01
2023-05-09T01:27:45.887Z,10.90
2023-05-09T01:30:14.343Z,10.86
2023-05-09T01:32:43.546Z,10.91
2023-05-09T01:35:12.973Z,10.77
2023-05-09T01:37:44.985Z,10.74
2023-05-09T01:40:16.993Z,10.79
2023-05-09T01:42:48.228Z,10.66
2023-05-09T01:45:19.264Z,10.60
2023-05-09T01:47:49.020Z,10.54
2023-05-09T01:50:18.721Z,10.69
2023-05-09T01:52:48.503Z,10.53
2023-05-09T01:55:16.208Z,10.60
2023-05-09T01:57:44.616Z,10.59
2023-05-09T02:00:13.983Z,10.64
2023-05-09T02:02:42.062Z,10.79
2023-05-09T02:05:13.380Z,10.70
2023-05-09T02:07:41.925Z,10.76
2023-05-09T02:10:10.369Z,10.92
2023-05-09T02:12:37.493Z,11.01
2023-05-09T02:15:06.201Z,11.12
2023-05-09T02:17:33.258Z,11.25
2023-05-09T02:20:00.428Z,11.16
2023-05-09T02:22:27.410Z,11.26
2023-05-09T02:24:54.438Z,11.35
2023-05-09T02:27:21.870Z,11.19
2023-05-09T02:29:51.417Z,11.21
2023-05-09T02:32:25.120Z,11.19
2023-05-09T02:34:54.029Z,11.11
2023-05-09T02:37:21.623Z,11.11
2023-05-09T02:39:48.850Z,11.26
2023-05-09T02:42:22.455Z,11.20
2023-05-09T02:44:49.499Z,11.24
2023-05-09T02:47:16.351Z,11.33
2023-05-09T02:49:43.388Z,11.34
2023-05-09T02:52:11.096Z,11.42
2023-05-09T02:54:40.736Z,11.50
2023-05-09T02:57:07.680Z,11.55
2023-05-09T02:59:34.722Z,11.62
2023-05-09T03:02:01.971Z,11.65
2023-05-09T03:04:29.084Z,11.77
2023-05-09T03:06:56.161Z,11.73
2023-05-09T03:09:23.135Z,11.73
2023-05-09T03:11:50.809Z,11.87
2023-05-09T03:14:18.520Z,11.84
2023-05-09T03:16:45.395Z,11.80
2023-05-09T03:19:12.431Z,11.84
2023-05-09T03:21:39.783Z,11.76
2023-05-09T03:24:08.201Z,11.78
2023-05-09T03:26:37.874Z,11.88
2023-05-09T03:29:04.845Z,11.85
2023-05-09T03:31:32.153Z,11.90
2023-05-09T03:33:59.339Z,11.98
2023-05-09T03:36:26.560Z,12.11
2023-05-09T03:38:53.825Z,12.06
2023-05-09T03:41:21.692Z,12.00
2023-05-09T03:43:48.591Z,12.05
2023-05-09T03:46:15.484Z,12.04
2023-05-09T03:48:42.734Z,12.11
2023-05-09T03:51:09.823Z,12.20
2023-05-09T03:53:37.167Z,12.17
2023-05-09T03:56:03.849Z,12.22
2023-05-09T03:58:30.676Z,12.24
2023-05-09T04:00:57.685Z,12.22
2023-05-09T04:03:24.622Z,12.21
2023-05-09T04:05:51.415Z,12.21
2023-05-09T04:08:18.381Z,12.21
2023-05-09T04:10:45.133Z,12.22
2023-05-09T04:13:11.993Z,12.31
2023-05-09T04:15:38.949Z,12.28
2023-05-09T04:18:06.184Z,12.35
2023-05-09T04:20:33.374Z,12.28
2023-05-09T04:23:00.500Z,12.31
2023-05-09T04:25:27.749Z,12.28
2023-05-09T04:27:54.715Z,12.36
2023-05-09T04:30:22.656Z,12.44
2023-05-09T04:32:50.064Z,12.39
2023-05-09T04:35:19.879Z,12.38
2023-05-09T04:37:47.761Z,12.34
2023-05-09T04:40:15.003Z,12.31
2023-05-09T04:42:42.414Z,12.38
2023-05-09T04:45:11.813Z,12.46
2023-05-09T04:47:38.961Z,12.54
2023-05-09T04:50:06.295Z,12.56
2023-05-09T04:52:33.234Z,12.47
2023-05-09T04:55:00.225Z,12.52
2023-05-09T04:57:27.106Z,12.63
2023-05-09T04:59:54.213Z,12.67
2023-05-09T05:02:22.407Z,12.83
2023-05-09T05:04:49.259Z,12.80
2023-05-09T05:07:15.998Z,12.95
2023-05-09T05:09:42.747Z,13.02
2023-05-09T05:12:09.968Z,12.99
2023-05-09T05:14:36.725Z,13.00
2023-05-09T05:17:03.559Z,13.13
2023-05-09T05:19:30.835Z,13.12
2023-05-09T05:21:58.835Z,13.08
2023-05-09T05:24:25.764Z,13.11
2023-05-09T05:26:52.733Z,13.06
2023-05-09T05:29:20.564Z,13.16
2023-05-09T05:31:47.595Z,13.18
2023-05-09T05:34:16.497Z,13.37
2023-05-09T05:36:43.544Z,13.32
2023-05-09T05:39:10.155Z,13.27
2023-05-09T05:41:37.136Z,13.30
2023-05-09T05:44:04.466Z,13.27
2023-05-09T05:46:31.283Z,13.32
2023-05-09T05:48:58.549Z,13.45
2023-05-09T05:51:25.486Z,13.26
2023-05-09T05:53:52.460Z,13.26
2023-05-09T05:56:19.213Z,13.28
2023-05-09T05:58:46.061Z,13.29
2023-05-09T06:01:14.539Z,13.32
2023-05-09T06:03:41.434Z,13.35
2023-05-09T06:06:08.481Z,13.38
2023-05-09T06:08:35.414Z,13.34
2023-05-09T06:11:02.425Z,13.31
2023-05-09T06:13:29.277Z,13.38
2023-05-09T06:16:02.004Z,13.29
2023-05-09T06:18:37.906Z,13.53
2023-05-09T06:21:04.917Z,13.48
2023-05-09T06:23:31.736Z,13.44
2023-05-09T06:25:58.673Z,13.46
2023-05-09T06:28:25.692Z,13.67
2023-05-09T06:30:52.503Z,13.58
2023-05-09T06:33:19.275Z,13.58
2023-05-09T06:35:46.177Z,13.41
2023-05-09T06:38:13.043Z,13.50
2023-05-09T06:40:40.076Z,13.70
2023-05-09T06:43:07.909Z,13.74
2023-05-09T06:45:35.519Z,13.72
2023-05-09T06:48:02.725Z,13.75
2023-05-09T06:50:31.435Z,13.69
2023-05-09T06:52:59.897Z,13.60
2023-05-09T06:55:26.936Z,13.51
2023-05-09T06:57:53.974Z,13.52
2023-05-09T07:00:21.631Z,13.79
2023-05-09T07:02:48.584Z,13.69
2023-05-09T07:05:16.613Z,13.81
2023-05-09T07:07:43.804Z,13.91
2023-05-09T07:10:12.387Z,14.24
2023-05-09T07:12:40.238Z,14.33
2023-05-09T07:15:08.037Z,14.40
2023-05-09T07:17:34.999Z,14.46
2023-05-09T07:20:04.217Z,14.49
2023-05-09T07:22:32.091Z,14.66
2023-05-09T07:25:00.206Z,14.57
2023-05-09T07:27:27.060Z,14.39
2023-05-09T07:29:53.769Z,14.30
2023-05-09T07:32:21.022Z,14.06
2023-05-09T07:34:48.363Z,14.19
2023-05-09T07:37:16.360Z,14.19
2023-05-09T07:39:43.648Z,14.11
2023-05-09T07:42:11.130Z,14.15
2023-05-09T07:44:38.252Z,14.13
2023-05-09T07:47:05.779Z,14.27
2023-05-09T07:49:33.012Z,14.38
2023-05-09T07:51:59.982Z,14.42
2023-05-09T07:54:27.365Z,14.61
2023-05-09T07:56:55.005Z,14.64
2023-05-09T07:59:21.944Z,14.92
2023-05-09T08:01:49.055Z,15.29
2023-05-09T08:04:16.026Z,15.49
2023-05-09T08:06:42.956Z,15.46
2023-05-09T08:09:10.410Z,15.16
2023-05-09T08:11:37.282Z,15.03
2023-05-09T08:14:04.242Z,14.87
2023-05-09T08:16:31.319Z,15.02
2023-05-09T08:18:58.299Z,15.23
2023-05-09T08:21:25.245Z,15.43
2023-05-09T08:23:52.982Z,15.56
2023-05-09T08:26:19.791Z,15.43
2023-05-09T08:28:46.726Z,14.99
2023-05-09T08:31:13.857Z,14.91
2023-05-09T08:33:41.940Z,14.84
2023-05-09T08:36:09.376Z,15.04
2023-05-09T08:38:37.304Z,15.19
2023-05-09T08:41:04.479Z,15.40
2023-05-09T08:43:33.736Z,15.43
2023-05-09T08:46:04.120Z,15.39
2023-05-09T08:48:32.038Z,15.24
2023-05-09T08:51:00.069Z,15.33
2023-05-09T08:53:27.428Z,15.45
2023-05-09T08:55:54.554Z,15.63
2023-05-09T08:58:22.873Z,15.74
2023-05-09T09:00:50.904Z,15.88
2023-05-09T09:03:18.589Z,15.93
2023-05-09T09:05:45.895Z,16.08
2023-05-09T09:08:14.567Z,16.08
2023-05-09T09:10:48.520Z,15.87
2023-05-09T09:13:16.623Z,16.23
2023-05-09T09:15:45.696Z,16.47
2023-05-09T09:18:17.187Z,16.31
2023-05-09T09:20:48.285Z,16.36
2023-05-09T09:23:20.688Z,16.28
2023-05-09T09:25:48.410Z,16.03
2023-05-09T09:28:15.982Z,16.13
2023-05-09T09:30:48.057Z,16.56
2023-05-09T09:33:25.828Z,16.83
2023-05-09T09:35:54.552Z,17.22
2023-05-09T09:38:26.872Z,17.37
2023-05-09T09:40:55.140Z,17.18
2023-05-09T09:43:27.991Z,17.02
2023-05-09T09:45:54.973Z,16.93
2023-05-09T09:48:26.479Z,16.69
2023-05-09T09:50:59.542Z,16.71
2023-05-09T09:53:30.399Z,16.80
2023-05-09T09:55:57.567Z,17.05
2023-05-09T09:58:25.780Z,17.13
2023-05-09T10:01:16.926Z,17.38
2023-05-09T10:03:48.301Z,17.35
2023-05-09T10:06:16.278Z,17.04
2023-05-09T10:08:47.261Z,16.66
2023-05-09T10:11:14.118Z,15.94
2023-05-09T10:13:41.319Z,15.05
2023-05-09T10:16:09.060Z,14.51
2023-05-09T10:18:36.467Z,14.21
2023-05-09T10:21:05.959Z,13.95
2023-05-09T10:23:38.247Z,13.86
2023-05-09T10:26:06.495Z,13.88
2023-05-09T10:28:35.517Z,13.89
2023-05-09T10:31:09.602Z,13.77
2023-05-09T10:33:46.794Z,13.59
2023-05-09T10:36:16.596Z,13.45
2023-05-09T10:38:43.697Z,13.34
2023-05-09T10:41:11.085Z,13.30
2023-05-09T10:43:38.178Z,13.31
2023-05-09T10:46:05.437Z,13.51
2023-05-09T10:48:33.543Z,13.52
2023-05-09T10:51:01.290Z,13.62
2023-05-09T10:53:48.910Z,14.07
2023-05-09T10:56:29.629Z,14.30
2023-05-09T10:58:56.549Z,14.85
2023-05-09T11:01:32.862Z,15.16
2023-05-09T11:04:00.267Z,15.01
2023-05-09T11:06:46.288Z,15.36
2023-05-09T11:09:30.274Z,15.56
2023-05-09T11:12:06.385Z,15.51
2023-05-09T11:14:42.305Z,15.70
2023-05-09T11:17:21.363Z,16.33
2023-05-09T11:19:47.970Z,16.61
2023-05-09T11:22:20.015Z,16.74
2023-05-09T11:24:48.260Z,16.64
2023-05-09T11:27:26.143Z,16.71
2023-05-09T11:29:59.803Z,16.99
2023-05-09T11:32:33.359Z,17.77
2023-05-09T11:35:13.725Z,18.38
2023-05-09T11:37:58.209Z,18.78
2023-05-09T11:40:25.024Z,18.69
2023-05-09T11:42:58.369Z,17.39
2023-05-09T11:45:28.034Z,17.00
2023-05-09T11:47:54.759Z,17.26
2023-05-09T11:50:21.833Z,17.75
2023-05-09T11:52:49.269Z,18.55
2023-05-09T11:55:18.825Z,18.35
2023-05-09T11:57:50.765Z,18.34
2023-05-09T12:00:22.313Z,18.10
2023-05-09T12:02:51.116Z,18.18
2023-05-09T12:05:22.018Z,18.45
2023-05-09T12:07:49.101Z,18.08
2023-05-09T12:10:19.393Z,17.43
2023-05-09T12:12:50.986Z,17.34
2023-05-09T12:15:18.487Z,17.05
2023-05-09T12:17:48.151Z,16.70
2023-05-09T12:20:16.718Z,16.47
2023-05-09T12:22:44.097Z,16.23
2023-05-09T12:25:14.478Z,16.45
2023-05-09T12:27:46.099Z,16.88
2023-05-09T12:30:16.274Z,16.63
2023-05-09T12:32:44.023Z,16.48
2023-05-09T12:35:11.532Z,15.97
2023-05-09T12:37:41.124Z,15.99
2023-05-09T12:40:16.000Z,15.61
2023-05-09T12:42:47.728Z,15.74
2023-05-09T12:45:15.770Z,15.93
2023-05-09T12:47:42.938Z,16.41
2023-05-09T12:50:12.384Z,16.96
2023-05-09T12:53:02.200Z,17.95
2023-05-09T12:55:44.958Z,18.31
2023-05-09T12:58:15.283Z,19.34
2023-05-09T13:00:47.972Z,20.09
2023-05-09T13:03:26.630Z,20.28
2023-05-09T13:06:02.520Z,18.51
2023-05-09T13:08:32.175Z,18.36
2023-05-09T13:11:11.919Z,17.60
2023-05-09T13:13:45.498Z,17.72
2023-05-09T13:16:14.325Z,17.55
2023-05-09T13:18:47.708Z,17.70
2023-05-09T13:21:19.877Z,18.02
2023-05-09T13:23:47.732Z,17.87
2023-05-09T13:26:15.271Z,18.08
2023-05-09T13:28:43.989Z,18.51
2023-05-09T13:31:11.082Z,18.62
2023-05-09T13:33:38.708Z,18.43
2023-05-09T13:36:06.612Z,18.68
2023-05-09T13:38:40.106Z,18.65
2023-05-09T13:41:08.166Z,18.24
2023-05-09T13:43:35.857Z,17.54
2023-05-09T13:46:03.199Z,17.21
2023-05-09T13:48:29.853Z,16.78
2023-05-09T13:50:57.983Z,16.69
2023-05-09T13:53:24.748Z,16.70
2023-05-09T13:55:52.489Z,16.58
2023-05-09T13:58:19.707Z,16.35
2023-05-09T14:00:46.846Z,16.27
2023-05-09T14:03:13.893Z,16.47
2023-05-09T14:05:41.045Z,16.46
2023-05-09T14:08:08.128Z,16.62
2023-05-09T14:10:35.183Z,17.01
2023-05-09T14:13:02.459Z,17.02
2023-05-09T14:15:30.162Z,16.89
2023-05-09T14:17:57.210Z,16.58
2023-05-09T14:20:24.285Z,16.42
2023-05-09T14:22:51.908Z,16.64
2023-05-09T14:25:19.252Z,16.92
2023-05-09T14:27:46.295Z,17.14
2023-05-09T14:30:13.515Z,17.29
2023-05-09T14:32:40.544Z,17.17
2023-05-09T14:35:07.901Z,16.92
2023-05-09T14:37:34.950Z,16.73
2023-05-09T14:40:05.753Z,16.62
2023-05-09T14:42:33.056Z,16.51
2023-05-09T14:44:59.734Z,16.64
2023-05-09T14:47:26.662Z,16.70
2023-05-09T14:49:53.852Z,16.71
2023-05-09T14:52:20.964Z,17.06
2023-05-09T14:54:47.993Z,17.17
2023-05-09T14:57:14.804Z,17.14
2023-05-09T14:59:41.601Z,17.24
2023-05-09T15:02:08.390Z,17.00
2023-05-09T15:04:35.140Z,17.11
2023-05-09T15:07:02.303Z,16.97
2023-05-09T15:09:29.317Z,16.85
2023-05-09T15:11:56.783Z,16.65
2023-05-09T15:14:23.846Z,16.64
2023-05-09T15:16:52.543Z,16.31
2023-05-09T15:19:20.192Z,16.37
2023-05-09T15:21:47.073Z,16.33
2023-05-09T15:24:14.078Z,16.34
2023-05-09T15:26:40.897Z,16.18
2023-05-09T15:29:07.756Z,16.26
2023-05-09T15:31:36.474Z,16.14
2023-05-09T15:34:05.861Z,16.20
2023-05-09T15:36:34.263Z,15.95
2023-05-09T15:39:01.604Z,16.01
2023-05-09T15:41:28.789Z,16.08
2023-05-09T15:43:55.931Z,16.08
2023-05-09T15:46:22.917Z,16.03
2023-05-09T15:48:50.451Z,16.07
2023-05-09T15:51:17.602Z,16.16
2023-05-09T15:53:44.413Z,15.95
2023-05-09T15:56:11.453Z,15.88
2023-05-09T15:58:40.510Z,15.81
2023-05-09T16:01:08.265Z,15.66
2023-05-09T16:03:35.883Z,15.70
2023-05-09T16:06:03.602Z,15.68
2023-05-09T16:08:30.714Z,15.57
2023-05-09T16:11:00.901Z,15.69
2023-05-09T16:13:28.177Z,15.71
2023-05-09T16:15:55.584Z,15.59
2023-05-09T16:18:22.617Z,15.61
2023-05-09T16:20:49.732Z,15.43
2023-05-09T16:23:16.638Z,15.36
2023-05-09T16:25:45.102Z,15.43
2023-05-09T16:28:12.197Z,15.29
2023-05-09T16:30:39.536Z,15.27
2023-05-09T16:33:06.585Z,15.27
2023-05-09T16:35:34.046Z,15.13
2023-05-09T16:38:00.812Z,14.98
2023-05-09T16:40:28.702Z,14.89
2023-05-09T16:42:55.907Z,14.95
2023-05-09T16:45:22.669Z,14.91
2023-05-09T16:47:51.419Z,14.73
2023-05-09T16:50:18.515Z,14.69
2023-05-09T16:52:45.252Z,14.71
2023-05-09T16:55:12.320Z,14.70
2023-05-09T16:57:39.081Z,14.65
2023-05-09T17:00:08.082Z,14.68
2023-05-09T17:02:36.419Z,14.70
2023-05-09T17:05:04.435Z,14.67
2023-05-09T17:07:31.935Z,14.60
2023-05-09T17:09:58.620Z,14.50
2023-05-09T17:12:25.327Z,14.47
2023-05-09T17:14:52.278Z,14.50
2023-05-09T17:17:18.966Z,14.39
2023-05-09T17:19:45.703Z,14.28
2023-05-09T17:22:12.473Z,14.29
2023-05-09T17:24:39.094Z,14.27
2023-05-09T17:27:05.785Z,14.37
2023-05-09T17:29:32.684Z,14.35
2023-05-09T17:32:02.298Z,14.33
2023-05-09T17:34:29.406Z,14.15
2023-05-09T17:36:56.478Z,13.99
2023-05-09T17:39:23.261Z,13.83
2023-05-09T17:41:49.871Z,13.53
2023-05-09T17:44:16.734Z,13.09
2023-05-09T17:46:44.130Z,12.87
2023-05-09T17:49:13.912Z,12.71
2023-05-09T17:51:40.832Z,12.69
2023-05-09T17:54:07.540Z,12.62
2023-05-09T17:56:34.679Z,12.51
2023-05-09T17:59:01.684Z,12.43
2023-05-09T18:01:28.482Z,12.46
2023-05-09T18:03:55.257Z,12.54
2023-05-09T18:06:21.955Z,12.51
2023-05-09T18:08:48.551Z,12.44
2023-05-09T18:11:15.301Z,12.51
2023-05-09T18:13:42.142Z,12.42
2023-05-09T18:16:08.951Z,12.42
2023-05-09T18:18:36.584Z,12.35
2023-05-09T18:21:04.984Z,12.40
2023-05-09T18:23:31.722Z,12.36
2023-05-09T18:25:58.425Z,12.39
2023-05-09T18:28:25.258Z,12.34
2023-05-09T18:30:54.664Z,12.29
2023-05-09T18:33:23.704Z,12.38
2023-05-09T18:35:50.501Z,12.30
2023-05-09T18:38:17.568Z,12.15
2023-05-09T18:40:44.316Z,12.23
2023-05-09T18:43:11.308Z,12.19
2023-05-09T18:45:37.960Z,12.19
2023-05-09T18:48:05.266Z,12.20
2023-05-09T18:50:32.475Z,12.23
2023-05-09T18:52:59.697Z,12.26
2023-05-09T18:55:26.364Z,12.27
2023-05-09T18:57:53.301Z,12.24
2023-05-09T19:00:19.987Z,12.22
2023-05-09T19:02:46.705Z,12.26
2023-05-09T19:05:13.428Z,12.25
2023-05-09T19:07:40.166Z,12.28
2023-05-09T19:10:10.088Z,12.21
2023-05-09T19:12:36.826Z,12.22
2023-05-09T19:15:04.067Z,12.14
2023-05-09T19:17:30.808Z,12.17
2023-05-09T19:19:57.455Z,12.13
2023-05-09T19:22:24.107Z,12.18
2023-05-09T19:24:53.561Z,12.19
2023-05-09T19:27:20.250Z,12.20
2023-05-09T19:29:49.292Z,12.11
2023-05-09T19:32:17.943Z,12.15
2023-05-09T19:34:44.576Z,12.17
2023-05-09T19:37:11.239Z,12.11
2023-05-09T19:39:37.877Z,12.08
2023-05-09T19:42:04.499Z,11.99
2023-05-09T19:44:31.184Z,11.99
2023-05-09T19:46:58.591Z,11.99
2023-05-09T19:49:25.780Z,11.95
2023-05-09T19:51:52.469Z,11.90
2023-05-09T19:54:19.090Z,11.87
2023-05-09T19:56:45.713Z,11.96
2023-05-09T19:59:12.395Z,11.96
2023-05-09T20:01:39.024Z,11.96
2023-05-09T20:04:06.313Z,11.98
2023-05-09T20:06:33.065Z,11.97
2023-05-09T20:08:59.686Z,11.98
2023-05-09T20:11:27.623Z,11.85
2023-05-09T20:13:54.252Z,11.90
2023-05-09T20:16:21.395Z,11.87
2023-05-09T20:18:50.714Z,11.83
2023-05-09T20:21:18.533Z,11.80
2023-05-09T20:23:45.194Z,11.77
2023-05-09T20:26:11.854Z,11.77
2023-05-09T20:28:38.567Z,11.77
2023-05-09T20:31:05.190Z,11.78
2023-05-09T20:33:31.875Z,11.70
2023-05-09T20:35:58.565Z,11.76
2023-05-09T20:38:25.304Z,11.70
2023-05-09T20:40:51.976Z,11.73
2023-05-09T20:43:19.441Z,11.74
2023-05-09T20:45:46.325Z,11.74
2023-05-09T20:48:12.977Z,11.70
2023-05-09T20:50:39.646Z,11.73
2023-05-09T20:53:06.305Z,11.68
2023-05-09T20:55:33.051Z,11.65
2023-05-09T20:57:59.630Z,11.70
2023-05-09T21:00:26.259Z,11.66
2023-05-09T21:02:56.825Z,11.62
2023-05-09T21:05:24.995Z,11.67
2023-05-09T21:07:51.617Z,11.60
2023-05-09T21:10:18.495Z,11.65
2023-05-09T21:12:45.153Z,11.64
2023-05-09T21:15:11.946Z,11.64
2023-05-09T21:17:38.637Z,11.66
2023-05-09T21:20:06.145Z,11.64
2023-05-09T21:22:32.729Z,11.57
2023-05-09T21:24:59.468Z,11.64
2023-05-09T21:27:27.088Z,11.58
2023-05-09T21:29:53.694Z,11.58
2023-05-09T21:32:20.292Z,11.55
2023-05-09T21:34:47.955Z,11.49
2023-05-09T21:37:15.160Z,11.47
2023-05-09T21:39:41.776Z,11.50
2023-05-09T21:42:08.896Z,11.52
2023-05-09T21:44:35.786Z,11.52
2023-05-09T21:47:02.539Z,11.55
2023-05-09T21:49:29.397Z,11.59
2023-05-09T21:51:56.029Z,11.55
2023-05-09T21:54:22.678Z,11.50
2023-05-09T21:56:49.265Z,11.49
2023-05-09T21:59:17.770Z,11.52
2023-05-09T22:01:45.874Z,11.51
2023-05-09T22:04:12.654Z,11.50
2023-05-09T22:06:39.444Z,11.51
2023-05-09T22:09:06.645Z,11.47
2023-05-09T22:11:33.710Z,11.48
2023-05-09T22:14:00.475Z,11.42
2023-05-09T22:16:27.289Z,11.32
2023-05-09T22:18:53.957Z,11.37
2023-05-09T22:21:20.635Z,11.29
2023-05-09T22:23:47.226Z,11.22
2023-05-09T22:26:13.925Z,11.25
2023-05-09T22:28:40.633Z,11.16
2023-05-09T22:31:07.412Z,11.09
2023-05-09T22:33:34.543Z,11.06
2023-05-09T22:36:01.254Z,11.07
2023-05-09T22:38:27.953Z,11.05
2023-05-09T22:40:54.587Z,11.04
2023-05-09T22:43:21.408Z,11.03
2023-05-09T22:45:47.993Z,10.97
2023-05-09T22:48:14.633Z,10.98
2023-05-09T22:50:41.390Z,10.83
2023-05-09T22:53:08.384Z,10.78
2023-05-09T22:55:35.102Z,10.75
2023-05-09T22:58:01.678Z,10.77
2023-05-09T23:00:29.079Z,10.66
2023-05-09T23:02:55.998Z,10.55
2023-05-09T23:05:22.744Z,10.49
2023-05-09T23:07:49.384Z,10.55
2023-05-09T23:10:16.307Z,10.46
2023-05-09T23:12:43.112Z,10.45
2023-05-09T23:15:10.162Z,10.34
2023-05-09T23:17:36.842Z,10.40
2023-05-09T23:20:04.289Z,10.36
2023-05-09T23:22:31.111Z,10.45
2023-05-09T23:24:57.743Z,10.42
2023-05-09T23:27:24.399Z,10.46
2023-05-09T23:29:51.100Z,10.37
2023-05-09T23:32:17.660Z,10.41
2023-05-09T23:34:44.342Z,10.34
2023-05-09T23:37:11.964Z,10.31
2023-05-09T23:39:38.621Z,10.46
2023-05-09T23:42:05.447Z,10.43
2023-05-09T23:44:32.139Z,10.44
2023-05-09T23:47:04.669Z,10.39
2023-05-09T23:49:31.310Z,10.36
2023-05-09T23:51:57.959Z,10.30
2023-05-09T23:54:24.659Z,10.34
2023-05-09T23:56:51.309Z,10.36
2023-05-09T23:59:18.098Z,10.29
